sensor_id;sensor_type;location;lat;lon;timestamp;P1;durP1;ratioP1;P2;durP2;ratioP2
8361;SDS011;4218;48.326;14.304;2022-12-29T00:01:09;113.97;;;108.90;;
8361;SDS011;4218;48.326;14.304;2022-12-29T00:03:34;102.80;;;98.23;;
8361;SDS011;4218;48.326;14.304;2022-12-29T00:06:00;94.30;;;90.07;;
8361;SDS011;4218;48.326;14.304;2022-12-29T00:08:27;85.07;;;81.27;;
8361;SDS011;4218;48.326;14.304;2022-12-29T00:11:14;66.30;;;63.30;;
8361;SDS011;4218;48.326;14.304;2022-12-29T00:13:42;60.17;;;57.47;;
8361;SDS011;4218;48.326;14.304;2022-12-29T00:16:27;50.57;;;48.27;;
8361;SDS011;4218;48.326;14.304;2022-12-29T00:18:53;57.27;;;54.67;;
8361;SDS011;4218;48.326;14.304;2022-12-29T00:21:19;69.93;;;66.73;;
8361;SDS011;4218;48.326;14.304;2022-12-29T00:24:05;84.60;;;80.83;;
8361;SDS011;4218;48.326;14.304;2022-12-29T00:26:53;89.07;;;85.07;;
8361;SDS011;4218;48.326;14.304;2022-12-29T00:29:41;106.30;;;101.57;;
8361;SDS011;4218;48.326;14.304;2022-12-29T00:32:33;108.10;;;103.30;;
8361;SDS011;4218;48.326;14.304;2022-12-29T00:35:30;116.47;;;111.23;;
8361;SDS011;4218;48.326;14.304;2022-12-29T00:38:02;126.60;;;120.90;;
8361;SDS011;4218;48.326;14.304;2022-12-29T00:40:47;133.40;;;127.40;;
8361;SDS011;4218;48.326;14.304;2022-12-29T00:43:31;138.57;;;132.33;;
8361;SDS011;4218;48.326;14.304;2022-12-29T00:46:15;142.87;;;136.43;;
8361;SDS011;4218;48.326;14.304;2022-12-29T00:48:40;149.83;;;143.13;;
8361;SDS011;4218;48.326;14.304;2022-12-29T00:51:24;149.43;;;142.80;;
8361;SDS011;4218;48.326;14.304;2022-12-29T00:53:50;162.87;;;155.77;;
8361;SDS011;4218;48.326;14.304;2022-12-29T00:56:15;152.90;;;146.17;;
8361;SDS011;4218;48.326;14.304;2022-12-29T00:58:40;161.17;;;154.17;;
8361;SDS011;4218;48.326;14.304;2022-12-29T01:01:07;171.47;;;164.00;;
8361;SDS011;4218;48.326;14.304;2022-12-29T01:03:36;169.77;;;162.40;;
8361;SDS011;4218;48.326;14.304;2022-12-29T01:06:03;165.90;;;158.77;;
8361;SDS011;4218;48.326;14.304;2022-12-29T01:08:30;187.33;;;179.33;;
8361;SDS011;4218;48.326;14.304;2022-12-29T01:13:25;186.53;;;178.53;;
8361;SDS011;4218;48.326;14.304;2022-12-29T01:15:51;198.60;;;190.03;;
8361;SDS011;4218;48.326;14.304;2022-12-29T01:18:17;209.10;;;200.20;;
8361;SDS011;4218;48.326;14.304;2022-12-29T01:20:42;207.90;;;199.07;;
8361;SDS011;4218;48.326;14.304;2022-12-29T01:23:08;201.47;;;192.83;;
8361;SDS011;4218;48.326;14.304;2022-12-29T01:25:33;216.07;;;206.83;;
8361;SDS011;4218;48.326;14.304;2022-12-29T01:27:58;224.47;;;214.90;;
8361;SDS011;4218;48.326;14.304;2022-12-29T01:30:23;217.50;;;208.27;;
8361;SDS011;4218;48.326;14.304;2022-12-29T01:32:49;204.67;;;195.97;;
8361;SDS011;4218;48.326;14.304;2022-12-29T01:35:14;203.90;;;195.20;;
8361;SDS011;4218;48.326;14.304;2022-12-29T01:37:40;210.77;;;201.80;;
8361;SDS011;4218;48.326;14.304;2022-12-29T01:40:05;213.57;;;204.43;;
8361;SDS011;4218;48.326;14.304;2022-12-29T01:42:31;207.93;;;199.10;;
8361;SDS011;4218;48.326;14.304;2022-12-29T01:44:57;206.93;;;198.13;;
8361;SDS011;4218;48.326;14.304;2022-12-29T01:49:53;225.47;;;215.80;;
8361;SDS011;4218;48.326;14.304;2022-12-29T01:52:20;223.97;;;214.53;;
8361;SDS011;4218;48.326;14.304;2022-12-29T01:54:49;215.47;;;206.33;;
8361;SDS011;4218;48.326;14.304;2022-12-29T01:57:20;228.90;;;219.20;;
8361;SDS011;4218;48.326;14.304;2022-12-29T01:59:51;217.40;;;208.17;;
8361;SDS011;4218;48.326;14.304;2022-12-29T02:02:21;221.90;;;212.47;;
8361;SDS011;4218;48.326;14.304;2022-12-29T02:04:47;215.33;;;206.27;;
8361;SDS011;4218;48.326;14.304;2022-12-29T02:07:19;220.57;;;211.23;;
8361;SDS011;4218;48.326;14.304;2022-12-29T02:09:48;213.97;;;204.90;;
8361;SDS011;4218;48.326;14.304;2022-12-29T02:12:14;216.60;;;207.47;;
8361;SDS011;4218;48.326;14.304;2022-12-29T02:14:39;207.73;;;198.90;;
8361;SDS011;4218;48.326;14.304;2022-12-29T02:17:08;202.80;;;194.27;;
8361;SDS011;4218;48.326;14.304;2022-12-29T02:30:40;203.83;;;195.10;;
8361;SDS011;4218;48.326;14.304;2022-12-29T02:33:18;204.50;;;195.77;;
8361;SDS011;4218;48.326;14.304;2022-12-29T02:36:07;199.10;;;190.60;;
8361;SDS011;4218;48.326;14.304;2022-12-29T02:41:24;199.30;;;190.77;;
8361;SDS011;4218;48.326;14.304;2022-12-29T02:44:11;196.90;;;188.47;;
8361;SDS011;4218;48.326;14.304;2022-12-29T02:46:45;189.47;;;181.37;;
8361;SDS011;4218;48.326;14.304;2022-12-29T02:49:27;191.00;;;182.87;;
8361;SDS011;4218;48.326;14.304;2022-12-29T02:52:02;187.67;;;179.60;;
8361;SDS011;4218;48.326;14.304;2022-12-29T02:54:49;185.00;;;177.07;;
8361;SDS011;4218;48.326;14.304;2022-12-29T02:59:51;192.67;;;184.43;;
8361;SDS011;4218;48.326;14.304;2022-12-29T03:05:33;184.90;;;176.93;;
8361;SDS011;4218;48.326;14.304;2022-12-29T03:10:44;189.37;;;181.27;;
8361;SDS011;4218;48.326;14.304;2022-12-29T03:16:28;167.60;;;160.30;;
8361;SDS011;4218;48.326;14.304;2022-12-29T03:22:03;172.13;;;164.63;;
8361;SDS011;4218;48.326;14.304;2022-12-29T03:27:51;165.27;;;158.13;;
8361;SDS011;4218;48.326;14.304;2022-12-29T03:30:20;189.67;;;181.50;;
8361;SDS011;4218;48.326;14.304;2022-12-29T03:32:50;187.80;;;179.77;;
8361;SDS011;4218;48.326;14.304;2022-12-29T03:35:20;190.73;;;182.63;;
8361;SDS011;4218;48.326;14.304;2022-12-29T03:38:08;210.13;;;201.17;;
8361;SDS011;4218;48.326;14.304;2022-12-29T03:40:45;195.43;;;187.00;;
8361;SDS011;4218;48.326;14.304;2022-12-29T03:43:13;208.77;;;199.77;;
8361;SDS011;4218;48.326;14.304;2022-12-29T03:45:40;213.20;;;204.03;;
8361;SDS011;4218;48.326;14.304;2022-12-29T03:48:06;209.43;;;200.53;;
8361;SDS011;4218;48.326;14.304;2022-12-29T03:50:31;217.83;;;208.57;;
8361;SDS011;4218;48.326;14.304;2022-12-29T03:52:57;228.77;;;219.10;;
8361;SDS011;4218;48.326;14.304;2022-12-29T03:55:22;228.13;;;218.47;;
8361;SDS011;4218;48.326;14.304;2022-12-29T03:57:47;226.63;;;217.03;;
8361;SDS011;4218;48.326;14.304;2022-12-29T04:00:13;236.40;;;226.43;;
8361;SDS011;4218;48.326;14.304;2022-12-29T04:02:38;234.73;;;224.83;;
8361;SDS011;4218;48.326;14.304;2022-12-29T04:05:04;236.13;;;226.13;;
8361;SDS011;4218;48.326;14.304;2022-12-29T04:07:30;234.37;;;224.50;;
8361;SDS011;4218;48.326;14.304;2022-12-29T04:09:55;239.70;;;229.57;;
8361;SDS011;4218;48.326;14.304;2022-12-29T04:12:21;233.80;;;223.93;;
8361;SDS011;4218;48.326;14.304;2022-12-29T04:14:46;248.97;;;238.43;;
8361;SDS011;4218;48.326;14.304;2022-12-29T04:17:11;249.03;;;238.50;;
8361;SDS011;4218;48.326;14.304;2022-12-29T04:19:37;249.20;;;238.70;;
8361;SDS011;4218;48.326;14.304;2022-12-29T04:22:03;241.50;;;231.27;;
8361;SDS011;4218;48.326;14.304;2022-12-29T04:24:28;236.43;;;226.43;;
8361;SDS011;4218;48.326;14.304;2022-12-29T04:26:54;249.47;;;239.00;;
8361;SDS011;4218;48.326;14.304;2022-12-29T04:29:19;243.87;;;233.60;;
8361;SDS011;4218;48.326;14.304;2022-12-29T04:31:44;246.57;;;236.17;;
8361;SDS011;4218;48.326;14.304;2022-12-29T04:34:10;247.07;;;236.63;;
8361;SDS011;4218;48.326;14.304;2022-12-29T04:36:35;246.17;;;235.70;;
8361;SDS011;4218;48.326;14.304;2022-12-29T04:39:00;247.23;;;236.80;;
8361;SDS011;4218;48.326;14.304;2022-12-29T04:41:26;260.50;;;249.53;;
8361;SDS011;4218;48.326;14.304;2022-12-29T04:43:52;265.10;;;253.97;;
8361;SDS011;4218;48.326;14.304;2022-12-29T04:46:17;250.33;;;239.80;;
8361;SDS011;4218;48.326;14.304;2022-12-29T04:48:42;248.00;;;237.43;;
8361;SDS011;4218;48.326;14.304;2022-12-29T04:51:08;259.60;;;248.60;;
8361;SDS011;4218;48.326;14.304;2022-12-29T04:53:33;252.63;;;241.97;;
8361;SDS011;4218;48.326;14.304;2022-12-29T04:55:59;247.10;;;236.60;;
8361;SDS011;4218;48.326;14.304;2022-12-29T04:58:24;259.30;;;248.40;;
8361;SDS011;4218;48.326;14.304;2022-12-29T05:00:50;254.77;;;243.97;;
8361;SDS011;4218;48.326;14.304;2022-12-29T05:03:16;243.73;;;233.37;;
8361;SDS011;4218;48.326;14.304;2022-12-29T05:05:41;248.30;;;237.70;;
8361;SDS011;4218;48.326;14.304;2022-12-29T05:08:07;242.90;;;232.33;;
8361;SDS011;4218;48.326;14.304;2022-12-29T05:10:32;229.93;;;219.73;;
8361;SDS011;4218;48.326;14.304;2022-12-29T05:12:57;212.30;;;202.63;;
8361;SDS011;4218;48.326;14.304;2022-12-29T05:15:23;207.83;;;198.03;;
8361;SDS011;4218;48.326;14.304;2022-12-29T05:17:48;213.37;;;203.10;;
8361;SDS011;4218;48.326;14.304;2022-12-29T05:20:14;224.40;;;213.87;;
8361;SDS011;4218;48.326;14.304;2022-12-29T05:22:41;263.00;;;251.37;;
8361;SDS011;4218;48.326;14.304;2022-12-29T05:25:06;318.77;;;304.70;;
8361;SDS011;4218;48.326;14.304;2022-12-29T05:27:32;368.00;;;351.13;;
8361;SDS011;4218;48.326;14.304;2022-12-29T05:29:57;382.53;;;364.03;;
8361;SDS011;4218;48.326;14.304;2022-12-29T05:32:23;326.37;;;310.43;;
8361;SDS011;4218;48.326;14.304;2022-12-29T05:34:48;257.63;;;245.57;;
8361;SDS011;4218;48.326;14.304;2022-12-29T05:37:14;206.57;;;197.47;;
8361;SDS011;4218;48.326;14.304;2022-12-29T05:39:40;239.13;;;228.67;;
8361;SDS011;4218;48.326;14.304;2022-12-29T05:42:05;262.80;;;251.27;;
8361;SDS011;4218;48.326;14.304;2022-12-29T05:44:31;242.30;;;231.87;;
8361;SDS011;4218;48.326;14.304;2022-12-29T05:46:56;216.83;;;207.43;;
8361;SDS011;4218;48.326;14.304;2022-12-29T05:49:21;184.48;;;176.25;;
8361;SDS011;4218;48.326;14.304;2022-12-29T05:51:47;216.37;;;206.73;;
8361;SDS011;4218;48.326;14.304;2022-12-29T05:54:12;251.30;;;240.37;;
8361;SDS011;4218;48.326;14.304;2022-12-29T05:56:38;281.20;;;269.23;;
8361;SDS011;4218;48.326;14.304;2022-12-29T05:59:03;335.10;;;320.27;;
8361;SDS011;4218;48.326;14.304;2022-12-29T06:01:29;324.45;;;309.08;;
8361;SDS011;4218;48.326;14.304;2022-12-29T06:03:54;280.67;;;267.13;;
8361;SDS011;4218;48.326;14.304;2022-12-29T06:06:19;230.10;;;219.20;;
8361;SDS011;4218;48.326;14.304;2022-12-29T06:08:45;158.43;;;151.18;;
8361;SDS011;4218;48.326;14.304;2022-12-29T06:11:10;107.97;;;103.17;;
8361;SDS011;4218;48.326;14.304;2022-12-29T06:13:36;94.22;;;90.07;;
8361;SDS011;4218;48.326;14.304;2022-12-29T06:16:01;96.75;;;92.53;;
8361;SDS011;4218;48.326;14.304;2022-12-29T06:18:27;100.88;;;96.43;;
8361;SDS011;4218;48.326;14.304;2022-12-29T06:20:52;114.90;;;109.93;;
8361;SDS011;4218;48.326;14.304;2022-12-29T06:23:18;122.63;;;117.25;;
8361;SDS011;4218;48.326;14.304;2022-12-29T06:25:44;125.70;;;120.28;;
8361;SDS011;4218;48.326;14.304;2022-12-29T06:28:11;122.88;;;117.60;;
8361;SDS011;4218;48.326;14.304;2022-12-29T06:30:36;108.38;;;103.68;;
8361;SDS011;4218;48.326;14.304;2022-12-29T06:33:02;102.47;;;98.07;;
8361;SDS011;4218;48.326;14.304;2022-12-29T06:35:28;106.57;;;101.97;;
8361;SDS011;4218;48.326;14.304;2022-12-29T06:37:53;116.50;;;111.45;;
8361;SDS011;4218;48.326;14.304;2022-12-29T06:40:19;130.73;;;125.10;;
8361;SDS011;4218;48.326;14.304;2022-12-29T06:42:44;140.68;;;134.60;;
8361;SDS011;4218;48.326;14.304;2022-12-29T06:45:10;152.52;;;146.00;;
8361;SDS011;4218;48.326;14.304;2022-12-29T06:47:35;163.40;;;156.32;;
8361;SDS011;4218;48.326;14.304;2022-12-29T06:50:01;179.57;;;171.73;;
8361;SDS011;4218;48.326;14.304;2022-12-29T06:52:27;185.70;;;177.48;;
8361;SDS011;4218;48.326;14.304;2022-12-29T06:54:53;188.25;;;179.90;;
8361;SDS011;4218;48.326;14.304;2022-12-29T06:57:19;193.27;;;184.70;;
8361;SDS011;4218;48.326;14.304;2022-12-29T06:59:44;183.98;;;175.75;;
8361;SDS011;4218;48.326;14.304;2022-12-29T07:02:10;186.60;;;178.13;;
8361;SDS011;4218;48.326;14.304;2022-12-29T07:04:36;175.05;;;167.25;;
8361;SDS011;4218;48.326;14.304;2022-12-29T07:07:01;175.25;;;167.52;;
8361;SDS011;4218;48.326;14.304;2022-12-29T07:09:27;166.75;;;159.38;;
8361;SDS011;4218;48.326;14.304;2022-12-29T07:11:52;162.55;;;155.38;;
8361;SDS011;4218;48.326;14.304;2022-12-29T07:14:18;164.48;;;157.30;;
8361;SDS011;4218;48.326;14.304;2022-12-29T07:16:43;159.82;;;152.75;;
8361;SDS011;4218;48.326;14.304;2022-12-29T07:19:08;156.35;;;149.50;;
8361;SDS011;4218;48.326;14.304;2022-12-29T07:21:34;159.02;;;152.07;;
8361;SDS011;4218;48.326;14.304;2022-12-29T07:23:59;157.52;;;150.68;;
8361;SDS011;4218;48.326;14.304;2022-12-29T07:26:24;157.48;;;150.65;;
8361;SDS011;4218;48.326;14.304;2022-12-29T07:28:50;154.90;;;148.15;;
8361;SDS011;4218;48.326;14.304;2022-12-29T07:31:16;164.02;;;156.82;;
8361;SDS011;4218;48.326;14.304;2022-12-29T07:33:44;174.10;;;166.43;;
8361;SDS011;4218;48.326;14.304;2022-12-29T07:36:10;169.40;;;161.95;;
8361;SDS011;4218;48.326;14.304;2022-12-29T07:38:36;160.60;;;153.60;;
8361;SDS011;4218;48.326;14.304;2022-12-29T07:41:01;153.60;;;146.85;;
8361;SDS011;4218;48.326;14.304;2022-12-29T07:43:27;145.10;;;138.77;;
8361;SDS011;4218;48.326;14.304;2022-12-29T07:45:52;155.50;;;148.73;;
8361;SDS011;4218;48.326;14.304;2022-12-29T07:48:19;143.10;;;136.88;;
8361;SDS011;4218;48.326;14.304;2022-12-29T07:50:46;127.35;;;121.70;;
8361;SDS011;4218;48.326;14.304;2022-12-29T07:53:13;123.47;;;118.05;;
8361;SDS011;4218;48.326;14.304;2022-12-29T07:55:38;116.93;;;111.72;;
8361;SDS011;4218;48.326;14.304;2022-12-29T07:58:04;113.20;;;108.18;;
8361;SDS011;4218;48.326;14.304;2022-12-29T08:00:29;115.03;;;109.82;;
8361;SDS011;4218;48.326;14.304;2022-12-29T08:02:55;109.82;;;104.93;;
8361;SDS011;4218;48.326;14.304;2022-12-29T08:05:20;116.72;;;111.53;;
8361;SDS011;4218;48.326;14.304;2022-12-29T08:07:46;111.65;;;106.65;;
8361;SDS011;4218;48.326;14.304;2022-12-29T08:10:11;111.93;;;106.90;;
8361;SDS011;4218;48.326;14.304;2022-12-29T08:12:38;116.25;;;111.05;;
8361;SDS011;4218;48.326;14.304;2022-12-29T08:15:04;108.88;;;104.00;;
8361;SDS011;4218;48.326;14.304;2022-12-29T08:17:30;112.15;;;107.15;;
8361;SDS011;4218;48.326;14.304;2022-12-29T08:19:56;115.70;;;110.57;;
8361;SDS011;4218;48.326;14.304;2022-12-29T08:22:22;113.22;;;108.18;;
8361;SDS011;4218;48.326;14.304;2022-12-29T08:24:48;114.22;;;109.10;;
8361;SDS011;4218;48.326;14.304;2022-12-29T08:27:13;119.38;;;114.13;;
8361;SDS011;4218;48.326;14.304;2022-12-29T08:29:39;111.57;;;106.57;;
8361;SDS011;4218;48.326;14.304;2022-12-29T08:32:04;112.75;;;107.75;;
8361;SDS011;4218;48.326;14.304;2022-12-29T08:34:30;108.90;;;104.05;;
8361;SDS011;4218;48.326;14.304;2022-12-29T08:36:56;115.47;;;110.38;;
8361;SDS011;4218;48.326;14.304;2022-12-29T08:39:21;109.03;;;104.15;;
8361;SDS011;4218;48.326;14.304;2022-12-29T08:41:47;112.25;;;107.30;;
8361;SDS011;4218;48.326;14.304;2022-12-29T08:44:13;109.32;;;104.47;;
8361;SDS011;4218;48.326;14.304;2022-12-29T08:46:39;110.00;;;105.07;;
8361;SDS011;4218;48.326;14.304;2022-12-29T08:49:05;108.32;;;103.50;;
8361;SDS011;4218;48.326;14.304;2022-12-29T08:51:30;111.57;;;106.60;;
8361;SDS011;4218;48.326;14.304;2022-12-29T08:53:56;111.50;;;106.55;;
8361;SDS011;4218;48.326;14.304;2022-12-29T08:56:22;134.10;;;128.15;;
8361;SDS011;4218;48.326;14.304;2022-12-29T08:58:49;318.38;;;303.38;;
8361;SDS011;4218;48.326;14.304;2022-12-29T09:01:17;92.22;;;88.10;;
8361;SDS011;4218;48.326;14.304;2022-12-29T09:03:43;109.10;;;104.35;;
8361;SDS011;4218;48.326;14.304;2022-12-29T09:06:08;137.75;;;131.82;;
8361;SDS011;4218;48.326;14.304;2022-12-29T09:08:34;157.25;;;149.45;;
8361;SDS011;4218;48.326;14.304;2022-12-29T09:11:08;190.07;;;181.32;;
8361;SDS011;4218;48.326;14.304;2022-12-29T09:13:39;180.05;;;172.07;;
8361;SDS011;4218;48.326;14.304;2022-12-29T09:16:04;152.80;;;146.05;;
8361;SDS011;4218;48.326;14.304;2022-12-29T09:18:30;181.40;;;173.38;;
8361;SDS011;4218;48.326;14.304;2022-12-29T09:20:57;153.15;;;146.55;;
8361;SDS011;4218;48.326;14.304;2022-12-29T09:23:23;165.98;;;158.52;;
8361;SDS011;4218;48.326;14.304;2022-12-29T09:25:48;169.52;;;161.40;;
8361;SDS011;4218;48.326;14.304;2022-12-29T09:28:14;167.83;;;160.17;;
8361;SDS011;4218;48.326;14.304;2022-12-29T09:30:39;168.43;;;161.07;;
8361;SDS011;4218;48.326;14.304;2022-12-29T09:33:04;183.83;;;175.87;;
8361;SDS011;4218;48.326;14.304;2022-12-29T09:35:30;168.43;;;161.03;;
8361;SDS011;4218;48.326;14.304;2022-12-29T09:37:55;135.50;;;129.13;;
8361;SDS011;4218;48.326;14.304;2022-12-29T09:40:30;117.07;;;111.83;;
8361;SDS011;4218;48.326;14.304;2022-12-29T09:45:45;115.43;;;110.30;;
8361;SDS011;4218;48.326;14.304;2022-12-29T09:48:21;131.13;;;125.13;;
8361;SDS011;4218;48.326;14.304;2022-12-29T09:50:51;160.73;;;153.40;;
8361;SDS011;4218;48.326;14.304;2022-12-29T09:53:25;202.93;;;193.97;;
8361;SDS011;4218;48.326;14.304;2022-12-29T09:55:57;190.40;;;182.00;;
8361;SDS011;4218;48.326;14.304;2022-12-29T10:03:38;162.57;;;155.47;;
8361;SDS011;4218;48.326;14.304;2022-12-29T10:06:13;165.40;;;158.07;;
8361;SDS011;4218;48.326;14.304;2022-12-29T10:11:50;171.63;;;164.17;;
8361;SDS011;4218;48.326;14.304;2022-12-29T10:17:23;190.63;;;182.47;;
8361;SDS011;4218;48.326;14.304;2022-12-29T10:25:28;191.97;;;183.30;;
8361;SDS011;4218;48.326;14.304;2022-12-29T10:28:00;181.90;;;174.03;;
8361;SDS011;4218;48.326;14.304;2022-12-29T10:30:29;160.03;;;153.13;;
8361;SDS011;4218;48.326;14.304;2022-12-29T10:32:58;152.80;;;146.17;;
8361;SDS011;4218;48.326;14.304;2022-12-29T10:35:30;160.70;;;153.63;;
8361;SDS011;4218;48.326;14.304;2022-12-29T10:38:15;158.67;;;151.80;;
8361;SDS011;4218;48.326;14.304;2022-12-29T10:40:45;159.77;;;152.93;;
8361;SDS011;4218;48.326;14.304;2022-12-29T10:43:25;155.33;;;148.60;;
8361;SDS011;4218;48.326;14.304;2022-12-29T10:45:52;159.07;;;152.20;;
8361;SDS011;4218;48.326;14.304;2022-12-29T10:48:20;147.77;;;141.43;;
8361;SDS011;4218;48.326;14.304;2022-12-29T10:50:49;131.67;;;125.97;;
8361;SDS011;4218;48.326;14.304;2022-12-29T10:53:22;132.57;;;126.60;;
8361;SDS011;4218;48.326;14.304;2022-12-29T10:55:52;123.23;;;117.80;;
8361;SDS011;4218;48.326;14.304;2022-12-29T10:58:19;127.57;;;122.00;;
8361;SDS011;4218;48.326;14.304;2022-12-29T11:00:49;122.43;;;116.77;;
8361;SDS011;4218;48.326;14.304;2022-12-29T11:06:26;114.80;;;109.70;;
8361;SDS011;4218;48.326;14.304;2022-12-29T11:11:38;188.13;;;179.67;;
8361;SDS011;4218;48.326;14.304;2022-12-29T11:14:20;172.20;;;164.70;;
8361;SDS011;4218;48.326;14.304;2022-12-29T11:19:25;176.67;;;168.80;;
8361;SDS011;4218;48.326;14.304;2022-12-29T11:21:52;190.27;;;181.70;;
8361;SDS011;4218;48.326;14.304;2022-12-29T11:26:45;184.67;;;176.43;;
8361;SDS011;4218;48.326;14.304;2022-12-29T11:29:20;191.93;;;183.47;;
8361;SDS011;4218;48.326;14.304;2022-12-29T11:31:47;185.13;;;177.03;;
8361;SDS011;4218;48.326;14.304;2022-12-29T11:34:20;185.43;;;177.27;;
8361;SDS011;4218;48.326;14.304;2022-12-29T11:36:51;181.57;;;173.63;;
8361;SDS011;4218;48.326;14.304;2022-12-29T11:39:23;165.50;;;158.17;;
8361;SDS011;4218;48.326;14.304;2022-12-29T11:41:52;177.43;;;169.63;;
8361;SDS011;4218;48.326;14.304;2022-12-29T11:44:19;156.77;;;149.77;;
8361;SDS011;4218;48.326;14.304;2022-12-29T11:46:48;169.90;;;162.33;;
8361;SDS011;4218;48.326;14.304;2022-12-29T11:49:20;162.43;;;155.13;;
8361;SDS011;4218;48.326;14.304;2022-12-29T11:51:49;155.97;;;148.87;;
8361;SDS011;4218;48.326;14.304;2022-12-29T11:54:18;171.63;;;163.90;;
8361;SDS011;4218;48.326;14.304;2022-12-29T11:56:48;172.63;;;164.97;;
8361;SDS011;4218;48.326;14.304;2022-12-29T12:02:30;177.87;;;169.80;;
8361;SDS011;4218;48.326;14.304;2022-12-29T12:07:41;170.50;;;162.40;;
8361;SDS011;4218;48.326;14.304;2022-12-29T12:10:31;189.17;;;180.47;;
8361;SDS011;4218;48.326;14.304;2022-12-29T12:15:30;170.80;;;163.20;;
8361;SDS011;4218;48.326;14.304;2022-12-29T12:18:12;180.70;;;172.48;;
8361;SDS011;4218;48.326;14.304;2022-12-29T12:20:52;100.23;;;95.57;;
8361;SDS011;4218;48.326;14.304;2022-12-29T12:28:48;118.73;;;113.37;;
8361;SDS011;4218;48.326;14.304;2022-12-29T12:33:53;120.33;;;115.03;;
8361;SDS011;4218;48.326;14.304;2022-12-29T12:39:11;98.53;;;93.93;;
8361;SDS011;4218;48.326;14.304;2022-12-29T12:47:23;115.33;;;110.03;;
8361;SDS011;4218;48.326;14.304;2022-12-29T12:52:41;127.87;;;122.03;;
8361;SDS011;4218;48.326;14.304;2022-12-29T12:57:48;132.77;;;126.90;;
8361;SDS011;4218;48.326;14.304;2022-12-29T13:00:20;137.17;;;130.77;;
8361;SDS011;4218;48.326;14.304;2022-12-29T13:13:46;119.27;;;113.83;;
8361;SDS011;4218;48.326;14.304;2022-12-29T13:16:39;104.43;;;99.57;;
8361;SDS011;4218;48.326;14.304;2022-12-29T13:24:44;97.63;;;92.93;;
8361;SDS011;4218;48.326;14.304;2022-12-29T13:27:16;104.50;;;99.77;;
8361;SDS011;4218;48.326;14.304;2022-12-29T13:35:53;101.57;;;96.90;;
8361;SDS011;4218;48.326;14.304;2022-12-29T13:38:39;109.63;;;104.50;;
8361;SDS011;4218;48.326;14.304;2022-12-29T13:41:08;144.20;;;137.27;;
8361;SDS011;4218;48.326;14.304;2022-12-29T13:43:38;155.00;;;147.43;;
8361;SDS011;4218;48.326;14.304;2022-12-29T13:46:42;156.00;;;148.60;;
8361;SDS011;4218;48.326;14.304;2022-12-29T13:49:21;126.30;;;120.43;;
8361;SDS011;4218;48.326;14.304;2022-12-29T13:51:53;117.00;;;111.50;;
8361;SDS011;4218;48.326;14.304;2022-12-29T13:54:30;108.07;;;103.07;;
8361;SDS011;4218;48.326;14.304;2022-12-29T13:57:02;108.33;;;103.17;;
8361;SDS011;4218;48.326;14.304;2022-12-29T13:59:43;109.87;;;104.50;;
8361;SDS011;4218;48.326;14.304;2022-12-29T14:02:36;93.37;;;88.97;;
8361;SDS011;4218;48.326;14.304;2022-12-29T14:05:03;95.60;;;90.53;;
8361;SDS011;4218;48.326;14.304;2022-12-29T14:07:35;86.43;;;82.33;;
8361;SDS011;4218;48.326;14.304;2022-12-29T14:10:03;85.47;;;81.10;;
8361;SDS011;4218;48.326;14.304;2022-12-29T14:12:35;89.57;;;85.23;;
8361;SDS011;4218;48.326;14.304;2022-12-29T14:15:04;77.20;;;73.53;;
8361;SDS011;4218;48.326;14.304;2022-12-29T14:17:36;74.33;;;70.63;;
8361;SDS011;4218;48.326;14.304;2022-12-29T14:20:05;144.60;;;137.63;;
8361;SDS011;4218;48.326;14.304;2022-12-29T14:22:45;107.20;;;101.93;;
8361;SDS011;4218;48.326;14.304;2022-12-29T14:28:31;115.47;;;110.20;;
8361;SDS011;4218;48.326;14.304;2022-12-29T14:30:58;111.50;;;106.10;;
8361;SDS011;4218;48.326;14.304;2022-12-29T14:33:26;105.37;;;100.17;;
8361;SDS011;4218;48.326;14.304;2022-12-29T14:35:54;100.10;;;95.10;;
8361;SDS011;4218;48.326;14.304;2022-12-29T14:38:21;102.63;;;97.63;;
8361;SDS011;4218;48.326;14.304;2022-12-29T14:40:49;108.13;;;103.17;;
8361;SDS011;4218;48.326;14.304;2022-12-29T14:43:25;103.60;;;98.57;;
8361;SDS011;4218;48.326;14.304;2022-12-29T14:45:55;100.17;;;95.43;;
8361;SDS011;4218;48.326;14.304;2022-12-29T14:50:49;109.87;;;104.70;;
8361;SDS011;4218;48.326;14.304;2022-12-29T14:56:12;113.67;;;108.37;;
8361;SDS011;4218;48.326;14.304;2022-12-29T14:58:49;100.97;;;96.13;;
8361;SDS011;4218;48.326;14.304;2022-12-29T15:03:50;98.77;;;94.13;;
8361;SDS011;4218;48.326;14.304;2022-12-29T15:06:19;111.57;;;106.20;;
8361;SDS011;4218;48.326;14.304;2022-12-29T15:08:58;112.10;;;106.93;;
8361;SDS011;4218;48.326;14.304;2022-12-29T15:14:00;124.80;;;119.07;;
8361;SDS011;4218;48.326;14.304;2022-12-29T15:18:56;120.83;;;115.27;;
8361;SDS011;4218;48.326;14.304;2022-12-29T15:21:27;115.57;;;110.13;;
8361;SDS011;4218;48.326;14.304;2022-12-29T15:23:55;116.13;;;110.70;;
8361;SDS011;4218;48.326;14.304;2022-12-29T15:26:20;121.10;;;115.57;;
8361;SDS011;4218;48.326;14.304;2022-12-29T15:28:48;106.93;;;101.90;;
8361;SDS011;4218;48.326;14.304;2022-12-29T15:31:19;115.30;;;109.80;;
8361;SDS011;4218;48.326;14.304;2022-12-29T15:33:53;119.70;;;113.97;;
8361;SDS011;4218;48.326;14.304;2022-12-29T15:36:27;108.77;;;103.73;;
8361;SDS011;4218;48.326;14.304;2022-12-29T15:38:54;110.33;;;105.17;;
8361;SDS011;4218;48.326;14.304;2022-12-29T15:44:30;133.70;;;127.43;;
8361;SDS011;4218;48.326;14.304;2022-12-29T15:47:33;136.13;;;129.63;;
8361;SDS011;4218;48.326;14.304;2022-12-29T15:50:05;146.60;;;140.00;;
8361;SDS011;4218;48.326;14.304;2022-12-29T15:52:34;149.57;;;142.77;;
8361;SDS011;4218;48.326;14.304;2022-12-29T15:55:00;144.30;;;137.80;;
8361;SDS011;4218;48.326;14.304;2022-12-29T15:59:53;131.77;;;125.80;;
8361;SDS011;4218;48.326;14.304;2022-12-29T16:02:23;125.27;;;119.43;;
8361;SDS011;4218;48.326;14.304;2022-12-29T16:04:49;116.60;;;111.20;;
8361;SDS011;4218;48.326;14.304;2022-12-29T16:07:28;118.37;;;112.77;;
8361;SDS011;4218;48.326;14.304;2022-12-29T16:09:57;124.50;;;118.77;;
8361;SDS011;4218;48.326;14.304;2022-12-29T16:12:25;120.43;;;114.83;;
8361;SDS011;4218;48.326;14.304;2022-12-29T16:14:56;122.37;;;116.70;;
8361;SDS011;4218;48.326;14.304;2022-12-29T16:17:27;119.03;;;113.63;;
8361;SDS011;4218;48.326;14.304;2022-12-29T16:19:58;116.23;;;110.93;;
8361;SDS011;4218;48.326;14.304;2022-12-29T16:22:33;110.63;;;105.20;;
8361;SDS011;4218;48.326;14.304;2022-12-29T16:25:23;104.93;;;99.97;;
8361;SDS011;4218;48.326;14.304;2022-12-29T16:27:48;113.60;;;108.40;;
8361;SDS011;4218;48.326;14.304;2022-12-29T16:32:51;96.57;;;92.07;;
8361;SDS011;4218;48.326;14.304;2022-12-29T16:37:44;100.23;;;95.33;;
8361;SDS011;4218;48.326;14.304;2022-12-29T16:40:26;108.73;;;103.73;;
8361;SDS011;4218;48.326;14.304;2022-12-29T16:43:01;108.47;;;103.53;;
8361;SDS011;4218;48.326;14.304;2022-12-29T16:50:39;111.70;;;106.47;;
8361;SDS011;4218;48.326;14.304;2022-12-29T16:53:06;92.60;;;88.23;;
8361;SDS011;4218;48.326;14.304;2022-12-29T16:55:50;104.17;;;99.33;;